sensor_id;sensor_type;location;lat;lon;timestamp;P1;P2;P0
43180;PMS7003;28798;54.950;26.362;2022-11-14T00:04:26;0.4;0.4;0.3
43180;PMS7003;28798;54.950;26.362;2022-11-14T00:14:42;0.3;0.2;0
43180;PMS7003;28798;54.950;26.362;2022-11-14T00:18:56;1.2;1.2;0.9
43180;PMS7003;28798;54.950;26.362;2022-11-14T00:24:30;1.2;1.2;0.9
43180;PMS7003;28798;54.950;26.362;2022-11-14T00:29:26;0.1;0.1;0.1
43180;PMS7003;28798;54.950;26.362;2022-11-14T00:34:30;0.9;0.9;0.5
43180;PMS7003;28798;54.950;26.362;2022-11-14T00:39:30;0.9;0.9;0.5
43180;PMS7003;28798;54.950;26.362;2022-11-14T00:44:02;0;0;0
43180;PMS7003;28798;54.950;26.362;2022-11-14T00:49:42;0.2;0.2;0.1
43180;PMS7003;28798;54.950;26.362;2022-11-14T00:54:44;0.2;0.2;0.1
43180;PMS7003;28798;54.950;26.362;2022-11-14T00:59:28;0;0;0
43180;PMS7003;28798;54.950;26.362;2022-11-14T01:04:16;0;0;0
43180;PMS7003;28798;54.950;26.362;2022-11-14T01:14:26;0.1;0.1;0.1
43180;PMS7003;28798;54.950;26.362;2022-11-14T01:19:40;0.1;0.1;0.1
43180;PMS7003;28798;54.950;26.362;2022-11-14T01:23:56;0;0;0
43180;PMS7003;28798;54.950;26.362;2022-11-14T01:29:46;0;0;0
43180;PMS7003;28798;54.950;26.362;2022-11-14T01:34:06;0;0;0
43180;PMS7003;28798;54.950;26.362;2022-11-14T01:44:42;0;0;0
43180;PMS7003;28798;54.950;26.362;2022-11-14T01:49:35;0.6;0.6;0
43180;PMS7003;28798;54.950;26.362;2022-11-14T01:53:59;0.6;0.6;0
43180;PMS7003;28798;54.950;26.362;2022-11-14T01:58:57;0.2;0;0
43180;PMS7003;28798;54.950;26.362;2022-11-14T02:04:48;0;0;0
43180;PMS7003;28798;54.950;26.362;2022-11-14T02:19:20;0;0;0
43180;PMS7003;28798;54.950;26.362;2022-11-14T02:24:16;0;0;0
43180;PMS7003;28798;54.950;26.362;2022-11-14T02:29:07;0;0;0
43180;PMS7003;28798;54.950;26.362;2022-11-14T02:34:46;0;0;0
43180;PMS7003;28798;54.950;26.362;2022-11-14T02:44:46;0;0;0
43180;PMS7003;28798;54.950;26.362;2022-11-14T02:49:06;0;0;0
43180;PMS7003;28798;54.950;26.362;2022-11-14T02:54:46;0;0;0
43180;PMS7003;28798;54.950;26.362;2022-11-14T02:59:06;0;0;0
43180;PMS7003;28798;54.950;26.362;2022-11-14T03:04:32;0;0;0
43180;PMS7003;28798;54.950;26.362;2022-11-14T03:14:06;0.7;0;0
43180;PMS7003;28798;54.950;26.362;2022-11-14T03:19:34;0.5;0.5;0
43180;PMS7003;28798;54.950;26.362;2022-11-14T03:24:16;0.5;0.5;0
43180;PMS7003;28798;54.950;26.362;2022-11-14T03:29:20;0.5;0.5;0
43180;PMS7003;28798;54.950;26.362;2022-11-14T03:34:20;0;0;0
43180;PMS7003;28798;54.950;26.362;2022-11-14T03:39:06;0;0;0
43180;PMS7003;28798;54.950;26.362;2022-11-14T03:44:06;0;0;0
43180;PMS7003;28798;54.950;26.362;2022-11-14T03:49:44;0.7;0;0
43180;PMS7003;28798;54.950;26.362;2022-11-14T03:54:18;0.7;0;0
43180;PMS7003;28798;54.950;26.362;2022-11-14T03:59:44;0.5;0;0
43180;PMS7003;28798;54.950;26.362;2022-11-14T04:03:56;0.5;0;0
43180;PMS7003;28798;54.950;26.362;2022-11-14T04:14:22;0;0;0
43180;PMS7003;28798;54.950;26.362;2022-11-14T04:19:08;0;0;0
43180;PMS7003;28798;54.950;26.362;2022-11-14T04:24:32;0;0;0
43180;PMS7003;28798;54.950;26.362;2022-11-14T04:29:44;0;0;0
43180;PMS7003;28798;54.950;26.362;2022-11-14T04:34:44;0.3;0.2;0.1
43180;PMS7003;28798;54.950;26.362;2022-11-14T04:44:28;0.3;0.2;0.1
43180;PMS7003;28798;54.950;26.362;2022-11-14T04:49:06;0;0;0
43180;PMS7003;28798;54.950;26.362;2022-11-14T04:53:56;0;0;0
43180;PMS7003;28798;54.950;26.362;2022-11-14T04:59:16;0.1;0.1;0
43180;PMS7003;28798;54.950;26.362;2022-11-14T05:04:18;0.5;0.2;0
43180;PMS7003;28798;54.950;26.362;2022-11-14T05:09:34;0.5;0.2;0
43180;PMS7003;28798;54.950;26.362;2022-11-14T05:13:58;0.5;0.5;0
43180;PMS7003;28798;54.950;26.362;2022-11-14T05:19:04;0.2;0;0
43180;PMS7003;28798;54.950;26.362;2022-11-14T05:24:06;0.2;0;0
43180;PMS7003;28798;54.950;26.362;2022-11-14T05:29:14;0;0;0
43180;PMS7003;28798;54.950;26.362;2022-11-14T05:34:22;0;0;0
43180;PMS7003;28798;54.950;26.362;2022-11-14T05:44:20;0.1;0.1;0
43180;PMS7003;28798;54.950;26.362;2022-11-14T05:49:16;0.1;0.1;0
43180;PMS7003;28798;54.950;26.362;2022-11-14T05:54:44;0;0;0
43180;PMS7003;28798;54.950;26.362;2022-11-14T05:59:42;0;0;0
43180;PMS7003;28798;54.950;26.362;2022-11-14T06:04:20;0.1;0.1;0.1
43180;PMS7003;28798;54.950;26.362;2022-11-14T06:14:32;0.1;0.1;0.1
43180;PMS7003;28798;54.950;26.362;2022-11-14T06:19:46;0.1;0.1;0.1
43180;PMS7003;28798;54.950;26.362;2022-11-14T06:24:16;0;0;0
43180;PMS7003;28798;54.950;26.362;2022-11-14T06:29:22;0;0;0
43180;PMS7003;28798;54.950;26.362;2022-11-14T06:33:56;0;0;0
43180;PMS7003;28798;54.950;26.362;2022-11-14T06:38:56;0;0;0
43180;PMS7003;28798;54.950;26.362;2022-11-14T06:44:16;0.3;0.2;0.1
43180;PMS7003;28798;54.950;26.362;2022-11-14T06:49:12;0.3;0;0
43180;PMS7003;28798;54.950;26.362;2022-11-14T06:54:12;0.3;0;0
43180;PMS7003;28798;54.950;26.362;2022-11-14T06:59:11;0.3;0;0
43180;PMS7003;28798;54.950;26.362;2022-11-14T07:04:07;0.3;0;0
43180;PMS7003;28798;54.950;26.362;2022-11-14T07:28:56;0;0;0
43180;PMS7003;28798;54.950;26.362;2022-11-14T07:34:32;0;0;0
43180;PMS7003;28798;54.950;26.362;2022-11-14T07:54:04;0;0;0
43180;PMS7003;28798;54.950;26.362;2022-11-14T07:59:18;0;0;0
43180;PMS7003;28798;54.950;26.362;2022-11-14T08:04:30;0;0;0
43180;PMS7003;28798;54.950;26.362;2022-11-14T08:08:58;0;0;0
43180;PMS7003;28798;54.950;26.362;2022-11-14T08:14:06;0.6;0;0
43180;PMS7003;28798;54.950;26.362;2022-11-14T08:19:06;0;0;0
43180;PMS7003;28798;54.950;26.362;2022-11-14T08:24:48;0;0;0
43180;PMS7003;28798;54.950;26.362;2022-11-14T08:29:46;1.8;0.1;0
43180;PMS7003;28798;54.950;26.362;2022-11-14T08:33:56;1.8;0.1;0
43180;PMS7003;28798;54.950;26.362;2022-11-14T08:49:44;0;0;0
43180;PMS7003;28798;54.950;26.362;2022-11-14T08:54:06;0;0;0
43180;PMS7003;28798;54.950;26.362;2022-11-14T08:59:34;0;0;0
43180;PMS7003;28798;54.950;26.362;2022-11-14T09:04:06;0;0;0
43180;PMS7003;28798;54.950;26.362;2022-11-14T09:14:19;0;0;0
43180;PMS7003;28798;54.950;26.362;2022-11-14T09:19:48;0;0;0
43180;PMS7003;28798;54.950;26.362;2022-11-14T09:24:22;0;0;0
43180;PMS7003;28798;54.950;26.362;2022-11-14T09:28:56;0;0;0
43180;PMS7003;28798;54.950;26.362;2022-11-14T09:34:06;0;0;0
43180;PMS7003;28798;54.950;26.362;2022-11-14T09:39:30;0;0;0
43180;PMS7003;28798;54.950;26.362;2022-11-14T09:44:14;0.9;0.9;0.2
43180;PMS7003;28798;54.950;26.362;2022-11-14T09:49:44;0.5;0.5;0.1
43180;PMS7003;28798;54.950;26.362;2022-11-14T09:54:21;0.5;0.5;0.1
43180;PMS7003;28798;54.950;26.362;2022-11-14T09:58:56;0.6;0.6;0.2
43180;PMS7003;28798;54.950;26.362;2022-11-14T10:04:19;0.6;0.6;0.2
43180;PMS7003;28798;54.950;26.362;2022-11-14T10:09:50;0.6;0.6;0.2
43180;PMS7003;28798;54.950;26.362;2022-11-14T10:14:54;1.1;1.1;0.6
43180;PMS7003;28798;54.950;26.362;2022-11-14T10:19:48;1.3;1.3;0.7
43180;PMS7003;28798;54.950;26.362;2022-11-14T10:24:10;1.3;1.3;0.7
43180;PMS7003;28798;54.950;26.362;2022-11-14T10:29:40;1;1;0.9
43180;PMS7003;28798;54.950;26.362;2022-11-14T10:34:33;0.9;0.9;0.7
43180;PMS7003;28798;54.950;26.362;2022-11-14T10:49:21;0.9;0.9;0.7
43180;PMS7003;28798;54.950;26.362;2022-11-14T10:53:59;1.2;0.9;0.8
43180;PMS7003;28798;54.950;26.362;2022-11-14T10:59:07;1.2;0.9;0.8
43180;PMS7003;28798;54.950;26.362;2022-11-14T11:04:48;1.2;0.9;0.8
43180;PMS7003;28798;54.950;26.362;2022-11-14T11:09:21;1.2;0.9;0.8
43180;PMS7003;28798;54.950;26.362;2022-11-14T11:14:18;0.6;0.5;0.1
43180;PMS7003;28798;54.950;26.362;2022-11-14T11:19:21;0.6;0.5;0.1
43180;PMS7003;28798;54.950;26.362;2022-11-14T11:24:46;1.2;1.2;0.8
43180;PMS7003;28798;54.950;26.362;2022-11-14T11:29:47;1.2;1.2;0.8
43180;PMS7003;28798;54.950;26.362;2022-11-14T11:34:32;0;0;0
43180;PMS7003;28798;54.950;26.362;2022-11-14T11:44:47;1.2;0.8;0.6
43180;PMS7003;28798;54.950;26.362;2022-11-14T11:49:32;0.1;0.1;0
43180;PMS7003;28798;54.950;26.362;2022-11-14T11:54:48;0.1;0.1;0
43180;PMS7003;28798;54.950;26.362;2022-11-14T11:59:43;0.1;0.1;0
43180;PMS7003;28798;54.950;26.362;2022-11-14T12:44:44;0.1;0.1;0
43180;PMS7003;28798;54.950;26.362;2022-11-14T12:50:50;1.5;0.9;0.9
43180;PMS7003;28798;54.950;26.362;2022-11-14T12:53:56;0.5;0;0
43180;PMS7003;28798;54.950;26.362;2022-11-14T12:59:33;0.5;0;0
43180;PMS7003;28798;54.950;26.362;2022-11-14T13:04:31;0.1;0.1;0
43180;PMS7003;28798;54.950;26.362;2022-11-14T13:09:30;0.8;0.8;0.3
43180;PMS7003;28798;54.950;26.362;2022-11-14T13:14:49;0.8;0.8;0.3
43180;PMS7003;28798;54.950;26.362;2022-11-14T13:19:12;0.8;0.8;0.3
43180;PMS7003;28798;54.950;26.362;2022-11-14T13:25:13;0.8;0.8;0.3
43180;PMS7003;28798;54.950;26.362;2022-11-14T13:29:48;0.7;0.7;0.2
43180;PMS7003;28798;54.950;26.362;2022-11-14T13:34:45;0.8;0.8;0.4
43180;PMS7003;28798;54.950;26.362;2022-11-14T13:39:12;0.8;0.8;0.4
43180;PMS7003;28798;54.950;26.362;2022-11-14T13:44:21;0;0;0
43180;PMS7003;28798;54.950;26.362;2022-11-14T13:49:31;0;0;0
43180;PMS7003;28798;54.950;26.362;2022-11-14T13:54:09;0.7;0.7;0.7
43180;PMS7003;28798;54.950;26.362;2022-11-14T14:04:10;1.2;1.2;0.7
43180;PMS7003;28798;54.950;26.362;2022-11-14T14:09:47;0.3;0;0
43180;PMS7003;28798;54.950;26.362;2022-11-14T14:14:29;0.3;0;0
43180;PMS7003;28798;54.950;26.362;2022-11-14T14:19:37;0.6;0.6;0.1
43180;PMS7003;28798;54.950;26.362;2022-11-14T14:23:58;0.4;0.4;0.3
43180;PMS7003;28798;54.950;26.362;2022-11-14T14:28:58;0.4;0.4;0.3
43180;PMS7003;28798;54.950;26.362;2022-11-14T14:34:19;0;0;0
43180;PMS7003;28798;54.950;26.362;2022-11-14T14:39:34;1.3;1.3;0.6
43180;PMS7003;28798;54.950;26.362;2022-11-14T14:44:35;1.3;1.3;0.6
43180;PMS7003;28798;54.950;26.362;2022-11-14T14:49:21;0.6;0.6;0.5
43180;PMS7003;28798;54.950;26.362;2022-11-14T14:54:17;0.6;0.6;0.5
43180;PMS7003;28798;54.950;26.362;2022-11-14T15:04:44;0.7;0;0
43180;PMS7003;28798;54.950;26.362;2022-11-14T15:09:23;0.7;0;0
43180;PMS7003;28798;54.950;26.362;2022-11-14T15:14:09;0.7;0;0
43180;PMS7003;28798;54.950;26.362;2022-11-14T15:19:08;0.7;0;0
43180;PMS7003;28798;54.950;26.362;2022-11-14T15:25:05;3.1;3.1;2.7
43180;PMS7003;28798;54.950;26.362;2022-11-14T15:34:22;3.1;3.1;2.7
43180;PMS7003;28798;54.950;26.362;2022-11-14T15:38:57;2.1;2.1;1.3
43180;PMS7003;28798;54.950;26.362;2022-11-14T15:44:27;2.1;2.1;1.3
43180;PMS7003;28798;54.950;26.362;2022-11-14T15:49:28;2.1;2.1;1.3
43180;PMS7003;28798;54.950;26.362;2022-11-14T15:54:34;0.8;0.7;0.4
43180;PMS7003;28798;54.950;26.362;2022-11-14T15:59:32;0.8;0.7;0.4
43180;PMS7003;28798;54.950;26.362;2022-11-14T16:04:07;0.5;0.5;0.4
43180;PMS7003;28798;54.950;26.362;2022-11-14T16:09:09;1;1;0.9
43180;PMS7003;28798;54.950;26.362;2022-11-14T16:14:48;1;1;0.9
43180;PMS7003;28798;54.950;26.362;2022-11-14T16:19:20;1.1;1.1;0.6
43180;PMS7003;28798;54.950;26.362;2022-11-14T16:24:22;1.1;1.1;0.6
43180;PMS7003;28798;54.950;26.362;2022-11-14T16:28:56;1.6;1.6;0.9
43180;PMS7003;28798;54.950;26.362;2022-11-14T16:34:18;1.8;1.8;1.2
43180;PMS7003;28798;54.950;26.362;2022-11-14T16:39:48;1.8;1.8;1.2
43180;PMS7003;28798;54.950;26.362;2022-11-14T16:44:18;0.6;0.6;0.4
43180;PMS7003;28798;54.950;26.362;2022-11-14T16:49:48;1.4;1.4;0.8
43180;PMS7003;28798;54.950;26.362;2022-11-14T16:54:17;1.4;1.4;0.8
43180;PMS7003;28798;54.950;26.362;2022-11-14T17:04:14;1.7;0.9;0.9
43180;PMS7003;28798;54.950;26.362;2022-11-14T17:09:37;0.8;0.8;0.8
43180;PMS7003;28798;54.950;26.362;2022-11-14T17:14:34;1.4;1.4;1
43180;PMS7003;28798;54.950;26.362;2022-11-14T17:18:56;1.4;1.4;1
43180;PMS7003;28798;54.950;26.362;2022-11-14T17:24:30;1.4;1.4;1
43180;PMS7003;28798;54.950;26.362;2022-11-14T17:34:48;1.4;1.4;1
43180;PMS7003;28798;54.950;26.362;2022-11-14T17:39:22;1.1;1.1;0.6
43180;PMS7003;28798;54.950;26.362;2022-11-14T17:44:16;1.1;1.1;0.6
43180;PMS7003;28798;54.950;26.362;2022-11-14T17:49:12;2.4;2.2;1.4
43180;PMS7003;28798;54.950;26.362;2022-11-14T17:54:46;0;0;0
43180;PMS7003;28798;54.950;26.362;2022-11-14T17:59:18;0;0;0
43180;PMS7003;28798;54.950;26.362;2022-11-14T18:04:36;1.1;1.1;0.9
43180;PMS7003;28798;54.950;26.362;2022-11-14T18:08:56;1.1;1.1;0.9
43180;PMS7003;28798;54.950;26.362;2022-11-14T18:14:06;1.4;1.2;1.2
43180;PMS7003;28798;54.950;26.362;2022-11-14T18:19:14;1.4;1.4;1.1
43180;PMS7003;28798;54.950;26.362;2022-11-14T18:24:41;1.4;1.4;1.1
43180;PMS7003;28798;54.950;26.362;2022-11-14T18:34:48;1;1;0.7
43180;PMS7003;28798;54.950;26.362;2022-11-14T18:38:56;0.2;0;0
43180;PMS7003;28798;54.950;26.362;2022-11-14T18:44:30;0.9;0.9;0.8
43180;PMS7003;28798;54.950;26.362;2022-11-14T18:49:16;0.9;0.9;0.8
43180;PMS7003;28798;54.950;26.362;2022-11-14T18:54:48;2.2;2.2;1.1
43180;PMS7003;28798;54.950;26.362;2022-11-14T19:03:57;2.2;2.2;1.1
43180;PMS7003;28798;54.950;26.362;2022-11-14T19:09:15;2;2;1.6
43180;PMS7003;28798;54.950;26.362;2022-11-14T19:14:49;2;2;1.6
43180;PMS7003;28798;54.950;26.362;2022-11-14T19:19:49;1.2;1.2;1
43180;PMS7003;28798;54.950;26.362;2022-11-14T19:24:48;14.4;14.2;9.8
43180;PMS7003;28798;54.950;26.362;2022-11-14T19:29:07;14.4;14.2;9.8
43180;PMS7003;28798;54.950;26.362;2022-11-14T19:34:34;10.2;9.8;7.9
43180;PMS7003;28798;54.950;26.362;2022-11-14T19:39:28;10.2;9.8;7.9
43180;PMS7003;28798;54.950;26.362;2022-11-14T19:44:36;5.9;5.3;4
43180;PMS7003;28798;54.950;26.362;2022-11-14T19:49:46;5.4;5.3;4.1
43180;PMS7003;28798;54.950;26.362;2022-11-14T19:53:57;5.4;5.3;4.1
43180;PMS7003;28798;54.950;26.362;2022-11-14T20:04:18;7.6;7.3;4.6
43180;PMS7003;28798;54.950;26.362;2022-11-14T20:09:48;7.6;7.3;4.6
43180;PMS7003;28798;54.950;26.362;2022-11-14T20:14:22;7.6;7.3;4.6
43180;PMS7003;28798;54.950;26.362;2022-11-14T20:19:03;7.6;7.3;4.6
43180;PMS7003;28798;54.950;26.362;2022-11-14T20:24:32;5.4;4.7;3.6
43180;PMS7003;28798;54.950;26.362;2022-11-14T20:34:48;9.6;8.8;5.9
43180;PMS7003;28798;54.950;26.362;2022-11-14T20:39:48;7.3;6.3;4.6
43180;PMS7003;28798;54.950;26.362;2022-11-14T20:44:07;7.3;6.3;4.6
43180;PMS7003;28798;54.950;26.362;2022-11-14T20:49:34;7.3;6.3;4.6
43180;PMS7003;28798;54.950;26.362;2022-11-14T20:54:30;7.8;7.4;5.5
43180;PMS7003;28798;54.950;26.362;2022-11-14T21:08:57;7.9;7.1;4.9
43180;PMS7003;28798;54.950;26.362;2022-11-14T21:14:30;7.9;7.1;4.9
43180;PMS7003;28798;54.950;26.362;2022-11-14T21:19:16;6;6;4.3
43180;PMS7003;28798;54.950;26.362;2022-11-14T21:24:46;6;6;4.3
43180;PMS7003;28798;54.950;26.362;2022-11-14T21:29:22;6.8;6.8;4.9
43180;PMS7003;28798;54.950;26.362;2022-11-14T21:34:36;9.5;9.4;6.6
43180;PMS7003;28798;54.950;26.362;2022-11-14T21:39:05;9.5;9.4;6.6
43180;PMS7003;28798;54.950;26.362;2022-11-14T21:44:32;7.8;7.8;6.2
43180;PMS7003;28798;54.950;26.362;2022-11-14T21:49:48;8.3;7.1;5.6
43180;PMS7003;28798;54.950;26.362;2022-11-14T21:54:48;8.3;7.1;5.6
43180;PMS7003;28798;54.950;26.362;2022-11-14T22:04:31;12.1;10.1;7.3
43180;PMS7003;28798;54.950;26.362;2022-11-14T22:09:25;13.2;12.1;8.2
43180;PMS7003;28798;54.950;26.362;2022-11-14T22:14:19;15.6;14.8;9.5
43180;PMS7003;28798;54.950;26.362;2022-11-14T22:19:45;15.6;14.8;9.5
43180;PMS7003;28798;54.950;26.362;2022-11-14T22:23:57;6.8;5;2.8
43180;PMS7003;28798;54.950;26.362;2022-11-14T22:29:27;6.8;5;2.8
43180;PMS7003;28798;54.950;26.362;2022-11-14T22:34:13;14.2;13.6;8.4
43180;PMS7003;28798;54.950;26.362;2022-11-14T22:39:45;14.2;13.6;8.4
43180;PMS7003;28798;54.950;26.362;2022-11-14T22:44:19;14.2;13.6;8.4
43180;PMS7003;28798;54.950;26.362;2022-11-14T22:48:57;8.5;7.7;5.2
43180;PMS7003;28798;54.950;26.362;2022-11-14T22:54:11;8.7;8.6;5.8
43180;PMS7003;28798;54.950;26.362;2022-11-14T22:59:33;8.7;8.6;5.8
43180;PMS7003;28798;54.950;26.362;2022-11-14T23:04:27;9.6;9.3;7.2
43180;PMS7003;28798;54.950;26.362;2022-11-14T23:09:45;9.6;9.3;7.2
43180;PMS7003;28798;54.950;26.362;2022-11-14T23:14:03;9.6;9.3;7.2
43180;PMS7003;28798;54.950;26.362;2022-11-14T23:19:29;6.4;6.4;3.2
43180;PMS7003;28798;54.950;26.362;2022-11-14T23:24:25;6.4;6.4;3.2
43180;PMS7003;28798;54.950;26.362;2022-11-14T23:34:45;6.2;5.8;4.1
43180;PMS7003;28798;54.950;26.362;2022-11-14T23:38:57;6.2;5.8;4.1
43180;PMS7003;28798;54.950;26.362;2022-11-14T23:44:25;5.6;5.3;3.6
43180;PMS7003;28798;54.950;26.362;2022-11-14T23:48:57;5.6;5.3;3.6
43180;PMS7003;28798;54.950;26.362;2022-11-14T23:54:27;5.2;4.8;3.4
